sensor_id;sensor_type;location;lat;lon;timestamp;P1;durP1;ratioP1;P2;durP2;ratioP2
52266;SDS011;38223;50.940;4.034;2023-03-25T00:01:22;6.17;;;1.10;;
52266;SDS011;38223;50.940;4.034;2023-03-25T00:03:50;2.70;;;1.15;;
52266;SDS011;38223;50.940;4.034;2023-03-25T00:06:18;4.75;;;1.40;;
52266;SDS011;38223;50.940;4.034;2023-03-25T00:08:49;5.67;;;1.02;;
52266;SDS011;38223;50.940;4.034;2023-03-25T00:11:36;4.72;;;1.40;;
52266;SDS011;38223;50.940;4.034;2023-03-25T00:14:08;3.33;;;1.40;;
52266;SDS011;38223;50.940;4.034;2023-03-25T00:16:46;2.47;;;1.27;;
52266;SDS011;38223;50.940;4.034;2023-03-25T00:19:19;6.03;;;1.45;;
52266;SDS011;38223;50.940;4.034;2023-03-25T00:21:50;4.22;;;1.60;;
52266;SDS011;38223;50.940;4.034;2023-03-25T00:24:25;3.37;;;1.50;;
52266;SDS011;38223;50.940;4.034;2023-03-25T00:27:00;5.35;;;1.30;;
52266;SDS011;38223;50.940;4.034;2023-03-25T00:29:32;5.97;;;1.20;;
52266;SDS011;38223;50.940;4.034;2023-03-25T00:32:10;2.98;;;1.57;;
52266;SDS011;38223;50.940;4.034;2023-03-25T00:34:44;5.00;;;1.62;;
52266;SDS011;38223;50.940;4.034;2023-03-25T00:37:15;4.45;;;1.50;;
52266;SDS011;38223;50.940;4.034;2023-03-25T00:39:53;5.37;;;1.77;;
52266;SDS011;38223;50.940;4.034;2023-03-25T00:42:26;5.90;;;1.50;;
52266;SDS011;38223;50.940;4.034;2023-03-25T00:44:53;6.97;;;1.70;;
52266;SDS011;38223;50.940;4.034;2023-03-25T00:47:23;2.90;;;1.47;;
52266;SDS011;38223;50.940;4.034;2023-03-25T00:49:52;7.33;;;1.50;;
52266;SDS011;38223;50.940;4.034;2023-03-25T00:52:23;3.45;;;1.30;;
52266;SDS011;38223;50.940;4.034;2023-03-25T00:55:02;6.15;;;1.60;;
52266;SDS011;38223;50.940;4.034;2023-03-25T00:57:35;4.50;;;1.50;;
52266;SDS011;38223;50.940;4.034;2023-03-25T01:00:06;6.78;;;1.85;;
52266;SDS011;38223;50.940;4.034;2023-03-25T01:02:37;5.87;;;1.40;;
52266;SDS011;38223;50.940;4.034;2023-03-25T01:05:05;5.15;;;1.40;;
52266;SDS011;38223;50.940;4.034;2023-03-25T01:07:42;3.85;;;1.55;;
52266;SDS011;38223;50.940;4.034;2023-03-25T01:10:17;3.65;;;1.80;;
52266;SDS011;38223;50.940;4.034;2023-03-25T01:12:46;8.68;;;1.80;;
52266;SDS011;38223;50.940;4.034;2023-03-25T01:15:18;6.67;;;2.45;;
52266;SDS011;38223;50.940;4.034;2023-03-25T01:17:51;5.62;;;2.60;;
52266;SDS011;38223;50.940;4.034;2023-03-25T01:20:27;7.58;;;2.95;;
52266;SDS011;38223;50.940;4.034;2023-03-25T01:22:56;7.08;;;2.55;;
52266;SDS011;38223;50.940;4.034;2023-03-25T01:25:31;5.37;;;2.50;;
52266;SDS011;38223;50.940;4.034;2023-03-25T01:28:02;7.85;;;2.30;;
52266;SDS011;38223;50.940;4.034;2023-03-25T01:30:35;10.90;;;1.80;;
52266;SDS011;38223;50.940;4.034;2023-03-25T01:33:10;4.25;;;1.92;;
52266;SDS011;38223;50.940;4.034;2023-03-25T01:35:52;6.08;;;1.75;;
52266;SDS011;38223;50.940;4.034;2023-03-25T01:38:25;8.93;;;2.33;;
52266;SDS011;38223;50.940;4.034;2023-03-25T01:41:02;5.80;;;1.82;;
52266;SDS011;38223;50.940;4.034;2023-03-25T01:43:37;7.55;;;2.83;;
52266;SDS011;38223;50.940;4.034;2023-03-25T01:46:10;10.10;;;3.17;;
52266;SDS011;38223;50.940;4.034;2023-03-25T01:48:44;4.70;;;2.37;;
52266;SDS011;38223;50.940;4.034;2023-03-25T01:51:19;5.85;;;2.50;;
52266;SDS011;38223;50.940;4.034;2023-03-25T01:53:51;6.97;;;2.47;;
52266;SDS011;38223;50.940;4.034;2023-03-25T01:56:25;9.10;;;2.22;;
52266;SDS011;38223;50.940;4.034;2023-03-25T01:58:55;7.45;;;1.80;;
52266;SDS011;38223;50.940;4.034;2023-03-25T02:01:32;8.40;;;1.82;;
52266;SDS011;38223;50.940;4.034;2023-03-25T02:04:01;7.78;;;1.70;;
52266;SDS011;38223;50.940;4.034;2023-03-25T02:09:14;6.47;;;1.37;;
52266;SDS011;38223;50.940;4.034;2023-03-25T02:11:46;6.97;;;1.57;;
52266;SDS011;38223;50.940;4.034;2023-03-25T02:14:19;10.58;;;1.70;;
52266;SDS011;38223;50.940;4.034;2023-03-25T02:22:43;10.32;;;1.85;;
52266;SDS011;38223;50.940;4.034;2023-03-25T02:25:42;5.53;;;1.50;;
52266;SDS011;38223;50.940;4.034;2023-03-25T02:28:19;9.15;;;1.92;;
52266;SDS011;38223;50.940;4.034;2023-03-25T02:31:04;7.53;;;1.60;;
52266;SDS011;38223;50.940;4.034;2023-03-25T02:39:20;5.62;;;1.47;;
52266;SDS011;38223;50.940;4.034;2023-03-25T02:42:13;7.42;;;1.92;;
52266;SDS011;38223;50.940;4.034;2023-03-25T02:44:49;12.65;;;1.80;;
52266;SDS011;38223;50.940;4.034;2023-03-25T02:47:21;4.65;;;1.52;;
52266;SDS011;38223;50.940;4.034;2023-03-25T02:49:57;7.37;;;1.67;;
52266;SDS011;38223;50.940;4.034;2023-03-25T02:52:42;8.35;;;2.27;;
52266;SDS011;38223;50.940;4.034;2023-03-25T02:55:15;9.25;;;1.75;;
52266;SDS011;38223;50.940;4.034;2023-03-25T02:57:45;7.78;;;1.45;;
52266;SDS011;38223;50.940;4.034;2023-03-25T03:00:22;4.05;;;1.52;;
52266;SDS011;38223;50.940;4.034;2023-03-25T03:02:57;7.47;;;1.95;;
52266;SDS011;38223;50.940;4.034;2023-03-25T03:05:28;9.15;;;1.90;;
52266;SDS011;38223;50.940;4.034;2023-03-25T03:13:20;5.92;;;1.42;;
52266;SDS011;38223;50.940;4.034;2023-03-25T03:16:03;6.22;;;1.60;;
52266;SDS011;38223;50.940;4.034;2023-03-25T03:18:41;9.55;;;2.30;;
52266;SDS011;38223;50.940;4.034;2023-03-25T03:21:35;10.45;;;1.85;;
52266;SDS011;38223;50.940;4.034;2023-03-25T03:24:21;12.13;;;2.10;;
52266;SDS011;38223;50.940;4.034;2023-03-25T03:27:02;8.38;;;2.25;;
52266;SDS011;38223;50.940;4.034;2023-03-25T03:29:33;6.50;;;1.65;;
52266;SDS011;38223;50.940;4.034;2023-03-25T03:32:07;7.47;;;1.72;;
52266;SDS011;38223;50.940;4.034;2023-03-25T03:34:42;6.85;;;2.08;;
52266;SDS011;38223;50.940;4.034;2023-03-25T03:37:29;11.75;;;2.77;;
52266;SDS011;38223;50.940;4.034;2023-03-25T03:39:59;7.58;;;1.90;;
52266;SDS011;38223;50.940;4.034;2023-03-25T03:42:41;6.67;;;2.20;;
52266;SDS011;38223;50.940;4.034;2023-03-25T03:45:28;10.80;;;2.08;;
52266;SDS011;38223;50.940;4.034;2023-03-25T03:47:58;8.45;;;2.35;;
52266;SDS011;38223;50.940;4.034;2023-03-25T03:50:37;8.60;;;2.30;;
52266;SDS011;38223;50.940;4.034;2023-03-25T03:53:12;10.48;;;2.27;;
52266;SDS011;38223;50.940;4.034;2023-03-25T03:55:53;9.20;;;2.33;;
52266;SDS011;38223;50.940;4.034;2023-03-25T03:58:31;10.20;;;2.72;;
52266;SDS011;38223;50.940;4.034;2023-03-25T04:03:54;7.58;;;2.10;;
52266;SDS011;38223;50.940;4.034;2023-03-25T04:06:46;7.37;;;2.67;;
52266;SDS011;38223;50.940;4.034;2023-03-25T04:09:23;7.37;;;2.45;;
52266;SDS011;38223;50.940;4.034;2023-03-25T04:12:01;6.55;;;1.95;;
52266;SDS011;38223;50.940;4.034;2023-03-25T04:14:33;10.75;;;2.20;;
52266;SDS011;38223;50.940;4.034;2023-03-25T04:17:03;7.05;;;1.95;;
52266;SDS011;38223;50.940;4.034;2023-03-25T04:19:35;8.55;;;1.92;;
52266;SDS011;38223;50.940;4.034;2023-03-25T04:22:09;7.72;;;1.98;;
52266;SDS011;38223;50.940;4.034;2023-03-25T04:24:42;6.58;;;1.95;;
52266;SDS011;38223;50.940;4.034;2023-03-25T04:27:21;9.18;;;2.00;;
52266;SDS011;38223;50.940;4.034;2023-03-25T04:29:50;5.12;;;1.52;;
52266;SDS011;38223;50.940;4.034;2023-03-25T04:32:25;7.17;;;1.90;;
52266;SDS011;38223;50.940;4.034;2023-03-25T04:34:54;9.85;;;1.82;;
52266;SDS011;38223;50.940;4.034;2023-03-25T04:37:25;8.45;;;1.98;;
52266;SDS011;38223;50.940;4.034;2023-03-25T04:39:57;10.68;;;2.17;;
52266;SDS011;38223;50.940;4.034;2023-03-25T04:42:27;8.05;;;2.37;;
52266;SDS011;38223;50.940;4.034;2023-03-25T04:45:00;9.65;;;2.83;;
52266;SDS011;38223;50.940;4.034;2023-03-25T04:47:30;6.40;;;2.17;;
52266;SDS011;38223;50.940;4.034;2023-03-25T04:50:04;10.30;;;2.50;;
52266;SDS011;38223;50.940;4.034;2023-03-25T04:52:36;14.78;;;2.98;;
52266;SDS011;38223;50.940;4.034;2023-03-25T04:55:05;9.10;;;2.50;;
52266;SDS011;38223;50.940;4.034;2023-03-25T04:57:34;9.60;;;3.42;;
52266;SDS011;38223;50.940;4.034;2023-03-25T05:00:03;10.63;;;2.15;;
52266;SDS011;38223;50.940;4.034;2023-03-25T05:02:36;10.38;;;2.00;;
52266;SDS011;38223;50.940;4.034;2023-03-25T05:05:05;9.70;;;2.37;;
52266;SDS011;38223;50.940;4.034;2023-03-25T05:07:34;10.30;;;2.35;;
52266;SDS011;38223;50.940;4.034;2023-03-25T05:10:05;12.67;;;2.57;;
52266;SDS011;38223;50.940;4.034;2023-03-25T05:12:35;8.23;;;1.98;;
52266;SDS011;38223;50.940;4.034;2023-03-25T05:15:07;11.35;;;2.05;;
52266;SDS011;38223;50.940;4.034;2023-03-25T05:17:38;12.47;;;2.15;;
52266;SDS011;38223;50.940;4.034;2023-03-25T05:20:08;12.10;;;2.35;;
52266;SDS011;38223;50.940;4.034;2023-03-25T05:22:37;7.58;;;1.95;;
52266;SDS011;38223;50.940;4.034;2023-03-25T05:25:07;9.85;;;2.40;;
52266;SDS011;38223;50.940;4.034;2023-03-25T05:27:40;7.83;;;2.05;;
52266;SDS011;38223;50.940;4.034;2023-03-25T05:30:09;10.30;;;2.27;;
52266;SDS011;38223;50.940;4.034;2023-03-25T05:32:44;7.12;;;1.77;;
52266;SDS011;38223;50.940;4.034;2023-03-25T05:35:14;10.80;;;2.30;;
52266;SDS011;38223;50.940;4.034;2023-03-25T05:37:48;8.60;;;2.10;;
52266;SDS011;38223;50.940;4.034;2023-03-25T05:40:17;12.23;;;2.47;;
52266;SDS011;38223;50.940;4.034;2023-03-25T05:42:47;10.20;;;1.90;;
52266;SDS011;38223;50.940;4.034;2023-03-25T05:45:18;11.53;;;2.17;;
52266;SDS011;38223;50.940;4.034;2023-03-25T05:47:52;14.80;;;1.98;;
52266;SDS011;38223;50.940;4.034;2023-03-25T05:50:22;19.30;;;2.17;;
52266;SDS011;38223;50.940;4.034;2023-03-25T05:52:53;18.73;;;2.67;;
52266;SDS011;38223;50.940;4.034;2023-03-25T05:55:24;17.45;;;2.55;;
52266;SDS011;38223;50.940;4.034;2023-03-25T05:57:54;13.20;;;1.87;;
52266;SDS011;38223;50.940;4.034;2023-03-25T06:00:25;13.38;;;2.80;;
52266;SDS011;38223;50.940;4.034;2023-03-25T06:02:54;11.10;;;1.77;;
52266;SDS011;38223;50.940;4.034;2023-03-25T06:05:30;8.58;;;1.80;;
52266;SDS011;38223;50.940;4.034;2023-03-25T06:08:04;12.07;;;2.55;;
52266;SDS011;38223;50.940;4.034;2023-03-25T06:10:35;11.18;;;2.30;;
52266;SDS011;38223;50.940;4.034;2023-03-25T06:13:09;11.48;;;2.22;;
52266;SDS011;38223;50.940;4.034;2023-03-25T06:15:37;12.35;;;2.15;;
52266;SDS011;38223;50.940;4.034;2023-03-25T06:18:06;12.65;;;3.10;;
52266;SDS011;38223;50.940;4.034;2023-03-25T06:20:35;12.10;;;2.67;;
52266;SDS011;38223;50.940;4.034;2023-03-25T06:23:16;14.68;;;2.60;;
52266;SDS011;38223;50.940;4.034;2023-03-25T06:25:48;11.73;;;2.40;;
52266;SDS011;38223;50.940;4.034;2023-03-25T06:28:21;10.15;;;2.30;;
52266;SDS011;38223;50.940;4.034;2023-03-25T06:30:51;9.95;;;2.65;;
52266;SDS011;38223;50.940;4.034;2023-03-25T06:33:28;13.35;;;2.22;;
52266;SDS011;38223;50.940;4.034;2023-03-25T06:36:06;13.38;;;2.62;;
52266;SDS011;38223;50.940;4.034;2023-03-25T06:38:49;12.00;;;2.83;;
52266;SDS011;38223;50.940;4.034;2023-03-25T06:41:23;15.50;;;3.35;;
52266;SDS011;38223;50.940;4.034;2023-03-25T06:43:56;18.82;;;3.33;;
52266;SDS011;38223;50.940;4.034;2023-03-25T06:46:32;16.45;;;3.45;;
52266;SDS011;38223;50.940;4.034;2023-03-25T06:49:02;15.40;;;3.27;;
52266;SDS011;38223;50.940;4.034;2023-03-25T06:51:30;16.87;;;3.05;;
52266;SDS011;38223;50.940;4.034;2023-03-25T06:54:00;14.18;;;3.00;;
52266;SDS011;38223;50.940;4.034;2023-03-25T06:56:36;16.85;;;3.25;;
52266;SDS011;38223;50.940;4.034;2023-03-25T06:59:13;15.43;;;3.15;;
52266;SDS011;38223;50.940;4.034;2023-03-25T07:01:45;19.98;;;3.40;;
52266;SDS011;38223;50.940;4.034;2023-03-25T07:04:18;22.07;;;3.02;;
52266;SDS011;38223;50.940;4.034;2023-03-25T07:06:46;21.35;;;3.60;;
52266;SDS011;38223;50.940;4.034;2023-03-25T07:12:04;18.73;;;3.98;;
52266;SDS011;38223;50.940;4.034;2023-03-25T07:14:36;15.28;;;3.02;;
52266;SDS011;38223;50.940;4.034;2023-03-25T07:17:08;19.65;;;3.62;;
52266;SDS011;38223;50.940;4.034;2023-03-25T07:19:37;23.52;;;4.05;;
52266;SDS011;38223;50.940;4.034;2023-03-25T07:22:04;19.75;;;3.72;;
52266;SDS011;38223;50.940;4.034;2023-03-25T07:24:32;24.10;;;4.10;;
52266;SDS011;38223;50.940;4.034;2023-03-25T07:27:02;21.50;;;3.85;;
52266;SDS011;38223;50.940;4.034;2023-03-25T07:29:33;18.62;;;3.42;;
52266;SDS011;38223;50.940;4.034;2023-03-25T07:32:02;20.55;;;3.15;;
52266;SDS011;38223;50.940;4.034;2023-03-25T07:34:35;21.82;;;4.17;;
52266;SDS011;38223;50.940;4.034;2023-03-25T07:37:09;17.45;;;3.98;;
52266;SDS011;38223;50.940;4.034;2023-03-25T07:39:43;21.73;;;4.22;;
52266;SDS011;38223;50.940;4.034;2023-03-25T07:42:14;19.37;;;4.60;;
52266;SDS011;38223;50.940;4.034;2023-03-25T07:44:46;18.80;;;3.60;;
52266;SDS011;38223;50.940;4.034;2023-03-25T07:47:16;23.62;;;3.65;;
52266;SDS011;38223;50.940;4.034;2023-03-25T07:49:45;21.00;;;3.67;;
52266;SDS011;38223;50.940;4.034;2023-03-25T07:52:15;18.25;;;3.77;;
52266;SDS011;38223;50.940;4.034;2023-03-25T07:54:44;23.47;;;4.22;;
52266;SDS011;38223;50.940;4.034;2023-03-25T07:57:21;19.92;;;3.87;;
52266;SDS011;38223;50.940;4.034;2023-03-25T07:59:51;24.35;;;4.62;;
52266;SDS011;38223;50.940;4.034;2023-03-25T08:02:22;26.43;;;3.43;;
52266;SDS011;38223;50.940;4.034;2023-03-25T08:04:52;21.80;;;3.35;;
52266;SDS011;38223;50.940;4.034;2023-03-25T08:07:27;25.10;;;4.00;;
52266;SDS011;38223;50.940;4.034;2023-03-25T08:09:56;24.12;;;4.00;;
52266;SDS011;38223;50.940;4.034;2023-03-25T08:12:27;13.53;;;2.77;;
52266;SDS011;38223;50.940;4.034;2023-03-25T08:14:57;13.05;;;2.87;;
52266;SDS011;38223;50.940;4.034;2023-03-25T08:17:28;21.70;;;4.12;;
52266;SDS011;38223;50.940;4.034;2023-03-25T08:19:59;15.58;;;3.67;;
52266;SDS011;38223;50.940;4.034;2023-03-25T08:22:28;32.88;;;5.47;;
52266;SDS011;38223;50.940;4.034;2023-03-25T08:25:01;20.23;;;3.70;;
52266;SDS011;38223;50.940;4.034;2023-03-25T08:27:31;21.20;;;4.15;;
52266;SDS011;38223;50.940;4.034;2023-03-25T08:30:05;23.30;;;3.92;;
52266;SDS011;38223;50.940;4.034;2023-03-25T08:32:52;23.35;;;4.30;;
52266;SDS011;38223;50.940;4.034;2023-03-25T08:35:25;21.87;;;3.72;;
52266;SDS011;38223;50.940;4.034;2023-03-25T08:37:49;20.40;;;4.65;;
52266;SDS011;38223;50.940;4.034;2023-03-25T08:40:20;16.55;;;3.67;;
52266;SDS011;38223;50.940;4.034;2023-03-25T08:42:51;26.48;;;4.05;;
52266;SDS011;38223;50.940;4.034;2023-03-25T08:45:22;19.73;;;4.87;;
52266;SDS011;38223;50.940;4.034;2023-03-25T08:47:50;21.82;;;4.00;;
52266;SDS011;38223;50.940;4.034;2023-03-25T08:50:18;18.80;;;3.62;;
52266;SDS011;38223;50.940;4.034;2023-03-25T08:52:48;23.12;;;3.40;;
52266;SDS011;38223;50.940;4.034;2023-03-25T08:55:25;20.00;;;4.05;;
52266;SDS011;38223;50.940;4.034;2023-03-25T08:57:52;26.48;;;4.92;;
52266;SDS011;38223;50.940;4.034;2023-03-25T09:00:20;16.90;;;4.05;;
52266;SDS011;38223;50.940;4.034;2023-03-25T09:02:49;19.75;;;3.58;;
52266;SDS011;38223;50.940;4.034;2023-03-25T09:05:17;16.85;;;3.72;;
52266;SDS011;38223;50.940;4.034;2023-03-25T09:07:46;17.65;;;4.35;;
52266;SDS011;38223;50.940;4.034;2023-03-25T09:10:14;19.87;;;4.37;;
52266;SDS011;38223;50.940;4.034;2023-03-25T09:12:43;20.08;;;3.67;;
52266;SDS011;38223;50.940;4.034;2023-03-25T09:15:12;27.45;;;4.20;;
52266;SDS011;38223;50.940;4.034;2023-03-25T09:17:40;26.25;;;4.05;;
52266;SDS011;38223;50.940;4.034;2023-03-25T09:20:08;17.67;;;3.80;;
52266;SDS011;38223;50.940;4.034;2023-03-25T09:22:39;27.02;;;4.67;;
52266;SDS011;38223;50.940;4.034;2023-03-25T09:25:14;18.10;;;3.87;;
52266;SDS011;38223;50.940;4.034;2023-03-25T09:27:41;25.62;;;5.42;;
52266;SDS011;38223;50.940;4.034;2023-03-25T09:30:09;23.60;;;5.12;;
52266;SDS011;38223;50.940;4.034;2023-03-25T09:32:40;19.95;;;3.40;;
52266;SDS011;38223;50.940;4.034;2023-03-25T09:35:09;21.30;;;4.08;;
52266;SDS011;38223;50.940;4.034;2023-03-25T09:37:40;22.17;;;4.55;;
52266;SDS011;38223;50.940;4.034;2023-03-25T09:40:13;19.25;;;4.20;;
52266;SDS011;38223;50.940;4.034;2023-03-25T09:42:53;19.82;;;4.78;;
52266;SDS011;38223;50.940;4.034;2023-03-25T09:45:31;16.25;;;3.98;;
52266;SDS011;38223;50.940;4.034;2023-03-25T09:48:35;16.50;;;3.42;;
52266;SDS011;38223;50.940;4.034;2023-03-25T09:53:54;20.05;;;4.20;;
52266;SDS011;38223;50.940;4.034;2023-03-25T09:56:28;14.45;;;3.52;;
52266;SDS011;38223;50.940;4.034;2023-03-25T09:59:04;20.10;;;4.17;;
52266;SDS011;38223;50.940;4.034;2023-03-25T10:01:51;15.63;;;3.72;;
52266;SDS011;38223;50.940;4.034;2023-03-25T10:07:48;23.47;;;3.77;;
52266;SDS011;38223;50.940;4.034;2023-03-25T10:13:42;24.95;;;4.35;;
52266;SDS011;38223;50.940;4.034;2023-03-25T10:22:03;20.52;;;4.28;;
52266;SDS011;38223;50.940;4.034;2023-03-25T10:24:44;19.25;;;3.83;;
52266;SDS011;38223;50.940;4.034;2023-03-25T10:27:26;26.27;;;4.50;;
52266;SDS011;38223;50.940;4.034;2023-03-25T10:29:57;17.32;;;2.75;;
52266;SDS011;38223;50.940;4.034;2023-03-25T10:35:19;16.87;;;3.20;;
52266;SDS011;38223;50.940;4.034;2023-03-25T10:37:59;20.20;;;3.70;;
52266;SDS011;38223;50.940;4.034;2023-03-25T10:40:38;17.85;;;3.98;;
52266;SDS011;38223;50.940;4.034;2023-03-25T10:46:00;17.30;;;4.25;;
52266;SDS011;38223;50.940;4.034;2023-03-25T10:48:47;17.98;;;3.60;;
52266;SDS011;38223;50.940;4.034;2023-03-25T10:51:28;22.93;;;3.30;;
52266;SDS011;38223;50.940;4.034;2023-03-25T10:54:00;15.90;;;3.05;;
52266;SDS011;38223;50.940;4.034;2023-03-25T10:56:33;12.05;;;3.25;;
52266;SDS011;38223;50.940;4.034;2023-03-25T10:59:12;18.10;;;3.20;;
52266;SDS011;38223;50.940;4.034;2023-03-25T11:01:51;21.07;;;3.62;;
52266;SDS011;38223;50.940;4.034;2023-03-25T11:04:28;20.25;;;3.72;;
52266;SDS011;38223;50.940;4.034;2023-03-25T11:07:01;22.60;;;3.17;;
52266;SDS011;38223;50.940;4.034;2023-03-25T11:09:33;13.10;;;2.75;;
52266;SDS011;38223;50.940;4.034;2023-03-25T11:12:05;11.12;;;2.83;;
52266;SDS011;38223;50.940;4.034;2023-03-25T11:14:37;18.75;;;3.02;;
52266;SDS011;38223;50.940;4.034;2023-03-25T11:17:15;16.32;;;3.30;;
52266;SDS011;38223;50.940;4.034;2023-03-25T11:22:37;14.98;;;3.33;;
52266;SDS011;38223;50.940;4.034;2023-03-25T11:25:28;18.95;;;2.72;;
52266;SDS011;38223;50.940;4.034;2023-03-25T11:27:53;13.10;;;3.05;;
52266;SDS011;38223;50.940;4.034;2023-03-25T11:30:34;20.85;;;3.52;;
52266;SDS011;38223;50.940;4.034;2023-03-25T11:33:10;17.48;;;3.87;;
52266;SDS011;38223;50.940;4.034;2023-03-25T11:35:40;8.93;;;2.27;;
52266;SDS011;38223;50.940;4.034;2023-03-25T11:38:15;13.05;;;2.55;;
52266;SDS011;38223;50.940;4.034;2023-03-25T11:40:58;14.03;;;2.25;;
52266;SDS011;38223;50.940;4.034;2023-03-25T11:43:31;12.55;;;2.47;;
52266;SDS011;38223;50.940;4.034;2023-03-25T11:46:09;18.37;;;3.08;;
52266;SDS011;38223;50.940;4.034;2023-03-25T11:48:39;12.28;;;2.70;;
52266;SDS011;38223;50.940;4.034;2023-03-25T11:51:20;13.18;;;2.42;;
52266;SDS011;38223;50.940;4.034;2023-03-25T11:54:00;12.47;;;3.10;;
52266;SDS011;38223;50.940;4.034;2023-03-25T11:56:41;14.58;;;2.80;;
52266;SDS011;38223;50.940;4.034;2023-03-25T11:59:24;10.90;;;2.37;;
52266;SDS011;38223;50.940;4.034;2023-03-25T12:02:29;16.77;;;3.08;;
52266;SDS011;38223;50.940;4.034;2023-03-25T12:04:57;14.47;;;2.95;;
52266;SDS011;38223;50.940;4.034;2023-03-25T12:07:27;11.57;;;2.85;;
52266;SDS011;38223;50.940;4.034;2023-03-25T12:09:58;12.27;;;3.07;;
52266;SDS011;38223;50.940;4.034;2023-03-25T12:12:29;10.58;;;2.27;;
52266;SDS011;38223;50.940;4.034;2023-03-25T12:15:17;17.05;;;3.10;;
52266;SDS011;38223;50.940;4.034;2023-03-25T12:18:04;10.18;;;3.10;;
52266;SDS011;38223;50.940;4.034;2023-03-25T12:23:43;17.37;;;3.30;;
52266;SDS011;38223;50.940;4.034;2023-03-25T12:26:30;13.53;;;3.60;;
52266;SDS011;38223;50.940;4.034;2023-03-25T12:31:56;12.75;;;3.27;;
52266;SDS011;38223;50.940;4.034;2023-03-25T12:34:43;15.63;;;3.75;;
52266;SDS011;38223;50.940;4.034;2023-03-25T12:37:46;13.00;;;3.35;;
52266;SDS011;38223;50.940;4.034;2023-03-25T12:43:13;17.82;;;3.40;;
52266;SDS011;38223;50.940;4.034;2023-03-25T12:45:56;16.60;;;3.08;;
52266;SDS011;38223;50.940;4.034;2023-03-25T12:51:46;10.88;;;2.55;;
52266;SDS011;38223;50.940;4.034;2023-03-25T12:54:19;17.12;;;3.60;;
52266;SDS011;38223;50.940;4.034;2023-03-25T13:05:39;14.85;;;3.45;;
52266;SDS011;38223;50.940;4.034;2023-03-25T13:08:23;15.58;;;3.27;;
52266;SDS011;38223;50.940;4.034;2023-03-25T13:11:10;11.70;;;3.15;;
52266;SDS011;38223;50.940;4.034;2023-03-25T13:13:25;23.40;;;3.87;;
52266;SDS011;38223;50.940;4.034;2023-03-25T13:16:10;12.80;;;2.90;;
52266;SDS011;38223;50.940;4.034;2023-03-25T13:21:52;15.20;;;3.40;;
52266;SDS011;38223;50.940;4.034;2023-03-25T13:24:38;18.48;;;4.00;;
52266;SDS011;38223;50.940;4.034;2023-03-25T13:27:21;16.10;;;3.37;;
52266;SDS011;38223;50.940;4.034;2023-03-25T13:29:50;12.93;;;3.60;;
52266;SDS011;38223;50.940;4.034;2023-03-25T13:32:26;14.87;;;3.77;;
52266;SDS011;38223;50.940;4.034;2023-03-25T13:35:05;18.32;;;3.02;;
52266;SDS011;38223;50.940;4.034;2023-03-25T13:37:42;13.13;;;2.77;;
52266;SDS011;38223;50.940;4.034;2023-03-25T13:43:25;14.43;;;2.42;;
52266;SDS011;38223;50.940;4.034;2023-03-25T13:46:08;19.52;;;3.15;;
52266;SDS011;38223;50.940;4.034;2023-03-25T13:49:21;8.68;;;2.35;;
52266;SDS011;38223;50.940;4.034;2023-03-25T13:51:15;9.75;;;2.87;;
52266;SDS011;38223;50.940;4.034;2023-03-25T13:56:49;15.45;;;2.70;;
52266;SDS011;38223;50.940;4.034;2023-03-25T14:13:05;10.20;;;2.45;;
52266;SDS011;38223;50.940;4.034;2023-03-25T14:15:39;16.52;;;3.10;;
52266;SDS011;38223;50.940;4.034;2023-03-25T14:18:16;10.63;;;2.50;;
52266;SDS011;38223;50.940;4.034;2023-03-25T14:20:49;13.68;;;3.15;;
52266;SDS011;38223;50.940;4.034;2023-03-25T14:23:18;10.55;;;2.50;;
52266;SDS011;38223;50.940;4.034;2023-03-25T14:26:06;9.13;;;2.35;;
52266;SDS011;38223;50.940;4.034;2023-03-25T14:28:47;13.83;;;3.00;;
52266;SDS011;38223;50.940;4.034;2023-03-25T14:44:46;6.25;;;2.25;;
52266;SDS011;38223;50.940;4.034;2023-03-25T14:47:35;8.85;;;2.67;;
52266;SDS011;38223;50.940;4.034;2023-03-25T14:53:04;8.13;;;1.80;;
52266;SDS011;38223;50.940;4.034;2023-03-25T14:55:50;9.30;;;1.87;;
52266;SDS011;38223;50.940;4.034;2023-03-25T14:58:25;9.55;;;1.92;;
52266;SDS011;38223;50.940;4.034;2023-03-25T15:01:01;11.30;;;1.92;;
52266;SDS011;38223;50.940;4.034;2023-03-25T15:03:39;9.13;;;2.60;;
52266;SDS011;38223;50.940;4.034;2023-03-25T15:06:11;11.68;;;2.40;;
52266;SDS011;38223;50.940;4.034;2023-03-25T15:08:52;11.75;;;2.55;;
52266;SDS011;38223;50.940;4.034;2023-03-25T15:11:59;12.85;;;2.77;;
52266;SDS011;38223;50.940;4.034;2023-03-25T15:14:40;17.37;;;3.47;;
52266;SDS011;38223;50.940;4.034;2023-03-25T15:17:12;12.18;;;2.70;;
52266;SDS011;38223;50.940;4.034;2023-03-25T15:22:32;11.83;;;2.65;;
52266;SDS011;38223;50.940;4.034;2023-03-25T15:25:14;14.93;;;3.17;;
52266;SDS011;38223;50.940;4.034;2023-03-25T15:30:38;14.07;;;3.05;;
52266;SDS011;38223;50.940;4.034;2023-03-25T15:33:15;13.70;;;3.27;;
52266;SDS011;38223;50.940;4.034;2023-03-25T15:41:40;14.15;;;3.08;;
52266;SDS011;38223;50.940;4.034;2023-03-25T15:47:20;13.30;;;3.40;;
52266;SDS011;38223;50.940;4.034;2023-03-25T15:52:52;17.27;;;3.22;;
52266;SDS011;38223;50.940;4.034;2023-03-25T15:55:36;14.93;;;3.45;;
52266;SDS011;38223;50.940;4.034;2023-03-25T15:58:25;16.65;;;3.33;;
52266;SDS011;38223;50.940;4.034;2023-03-25T16:00:55;12.68;;;2.60;;
52266;SDS011;38223;50.940;4.034;2023-03-25T16:03:27;17.35;;;3.67;;
52266;SDS011;38223;50.940;4.034;2023-03-25T16:06:00;13.25;;;2.92;;
52266;SDS011;38223;50.940;4.034;2023-03-25T16:08:38;17.65;;;3.52;;
52266;SDS011;38223;50.940;4.034;2023-03-25T16:11:23;12.80;;;2.92;;
52266;SDS011;38223;50.940;4.034;2023-03-25T16:14:13;14.03;;;2.90;;
52266;SDS011;38223;50.940;4.034;2023-03-25T16:16:44;17.00;;;3.35;;
52266;SDS011;38223;50.940;4.034;2023-03-25T16:19:20;15.05;;;3.35;;
52266;SDS011;38223;50.940;4.034;2023-03-25T16:22:00;15.28;;;3.02;;
52266;SDS011;38223;50.940;4.034;2023-03-25T16:24:35;13.45;;;3.25;;
52266;SDS011;38223;50.940;4.034;2023-03-25T16:27:09;14.35;;;4.08;;
52266;SDS011;38223;50.940;4.034;2023-03-25T16:29:38;16.55;;;3.22;;
52266;SDS011;38223;50.940;4.034;2023-03-25T16:32:15;13.05;;;3.50;;
52266;SDS011;38223;50.940;4.034;2023-03-25T16:34:39;20.65;;;3.47;;
52266;SDS011;38223;50.940;4.034;2023-03-25T16:37:13;20.75;;;3.98;;
52266;SDS011;38223;50.940;4.034;2023-03-25T16:39:43;14.33;;;3.90;;
52266;SDS011;38223;50.940;4.034;2023-03-25T16:42:29;18.15;;;4.25;;
52266;SDS011;38223;50.940;4.034;2023-03-25T16:44:59;18.27;;;3.95;;
52266;SDS011;38223;50.940;4.034;2023-03-25T16:47:31;21.07;;;4.33;;
52266;SDS011;38223;50.940;4.034;2023-03-25T16:50:00;17.82;;;3.95;;
52266;SDS011;38223;50.940;4.034;2023-03-25T16:52:32;23.18;;;5.12;;
52266;SDS011;38223;50.940;4.034;2023-03-25T16:57:43;16.07;;;3.40;;
52266;SDS011;38223;50.940;4.034;2023-03-25T17:00:18;17.23;;;3.92;;
52266;SDS011;38223;50.940;4.034;2023-03-25T17:02:51;15.72;;;3.72;;
52266;SDS011;38223;50.940;4.034;2023-03-25T17:05:25;21.82;;;3.67;;
52266;SDS011;38223;50.940;4.034;2023-03-25T17:08:01;21.48;;;4.40;;
52266;SDS011;38223;50.940;4.034;2023-03-25T17:10:54;16.82;;;3.72;;
52266;SDS011;38223;50.940;4.034;2023-03-25T17:13:27;18.55;;;3.70;;
52266;SDS011;38223;50.940;4.034;2023-03-25T17:15:55;28.50;;;4.80;;
52266;SDS011;38223;50.940;4.034;2023-03-25T17:18:26;20.12;;;3.90;;
52266;SDS011;38223;50.940;4.034;2023-03-25T17:20:58;16.00;;;3.75;;
52266;SDS011;38223;50.940;4.034;2023-03-25T17:23:42;19.17;;;3.90;;
52266;SDS011;38223;50.940;4.034;2023-03-25T17:26:16;25.15;;;4.62;;
52266;SDS011;38223;50.940;4.034;2023-03-25T17:31:33;22.22;;;4.78;;
52266;SDS011;38223;50.940;4.034;2023-03-25T17:34:13;22.05;;;4.75;;